sensor_id;sensor_type;location;lat;lon;timestamp;pressure;altitude;pressure_sealevel;temperature;humidity
21129;BME280;10722;51.910;8.352;2023-02-27T00:00:42;101978.41;;;-0.68;86.36
21129;BME280;10722;51.910;8.352;2023-02-27T00:03:28;101975.84;;;-0.68;86.54
21129;BME280;10722;51.910;8.352;2023-02-27T00:06:13;101977.47;;;-0.68;86.13
21129;BME280;10722;51.910;8.352;2023-02-27T00:08:58;101985.09;;;-0.68;86.44
21129;BME280;10722;51.910;8.352;2023-02-27T00:11:44;101979.91;;;-0.80;86.55
21129;BME280;10722;51.910;8.352;2023-02-27T00:14:29;101972.13;;;-1.02;86.54
21129;BME280;10722;51.910;8.352;2023-02-27T00:17:14;101970.63;;;-1.00;87.09
21129;BME280;10722;51.910;8.352;2023-02-27T00:19:59;101982.91;;;-1.04;87.40
21129;BME280;10722;51.910;8.352;2023-02-27T00:22:45;101982.91;;;-1.25;87.71
21129;BME280;10722;51.910;8.352;2023-02-27T00:25:31;101983.28;;;-1.30;88.24
21129;BME280;10722;51.910;8.352;2023-02-27T00:28:17;101996.47;;;-1.34;88.63
21129;BME280;10722;51.910;8.352;2023-02-27T00:31:02;102002.50;;;-1.53;89.38
21129;BME280;10722;51.910;8.352;2023-02-27T00:33:48;102009.53;;;-1.69;90.32
21129;BME280;10722;51.910;8.352;2023-02-27T00:36:33;102026.56;;;-1.68;91.45
21129;BME280;10722;51.910;8.352;2023-02-27T00:39:18;102034.44;;;-1.65;92.08
21129;BME280;10722;51.910;8.352;2023-02-27T00:42:03;102037.44;;;-1.69;93.17
21129;BME280;10722;51.910;8.352;2023-02-27T00:44:48;102035.16;;;-1.66;93.08
21129;BME280;10722;51.910;8.352;2023-02-27T00:47:34;102042.78;;;-1.66;93.35
21129;BME280;10722;51.910;8.352;2023-02-27T00:50:19;102036.19;;;-1.64;93.61
21129;BME280;10722;51.910;8.352;2023-02-27T00:53:04;102036.63;;;-1.49;93.05
21129;BME280;10722;51.910;8.352;2023-02-27T00:55:49;102035.13;;;-1.58;92.63
21129;BME280;10722;51.910;8.352;2023-02-27T00:58:34;102032.94;;;-1.63;92.59
21129;BME280;10722;51.910;8.352;2023-02-27T01:01:20;102039.69;;;-1.53;93.10
21129;BME280;10722;51.910;8.352;2023-02-27T01:04:06;102034.06;;;-1.60;93.38
21129;BME280;10722;51.910;8.352;2023-02-27T01:06:51;102034.28;;;-1.67;93.22
21129;BME280;10722;51.910;8.352;2023-02-27T01:09:37;102031.84;;;-1.75;93.87
21129;BME280;10722;51.910;8.352;2023-02-27T01:12:22;102039.44;;;-1.75;93.84
21129;BME280;10722;51.910;8.352;2023-02-27T01:15:09;102029.81;;;-1.79;93.78
21129;BME280;10722;51.910;8.352;2023-02-27T01:17:55;102039.00;;;-1.90;94.16
21129;BME280;10722;51.910;8.352;2023-02-27T01:20:40;102036.56;;;-1.89;94.39
21129;BME280;10722;51.910;8.352;2023-02-27T01:23:25;102036.53;;;-1.99;94.49
21129;BME280;10722;51.910;8.352;2023-02-27T01:26:10;102039.19;;;-1.97;95.08
21129;BME280;10722;51.910;8.352;2023-02-27T01:28:55;102039.06;;;-1.99;95.28
21129;BME280;10722;51.910;8.352;2023-02-27T01:31:41;102034.44;;;-2.13;95.12
21129;BME280;10722;51.910;8.352;2023-02-27T01:34:26;102035.66;;;-2.18;96.16
21129;BME280;10722;51.910;8.352;2023-02-27T01:37:11;102044.22;;;-2.27;96.62
21129;BME280;10722;51.910;8.352;2023-02-27T01:39:56;102034.22;;;-2.25;96.79
21129;BME280;10722;51.910;8.352;2023-02-27T01:42:42;102034.69;;;-2.29;97.05
21129;BME280;10722;51.910;8.352;2023-02-27T01:45:30;102038.00;;;-2.30;97.36
21129;BME280;10722;51.910;8.352;2023-02-27T01:48:26;102039.63;;;-2.31;97.45
21129;BME280;10722;51.910;8.352;2023-02-27T01:51:17;102043.50;;;-2.34;98.22
21129;BME280;10722;51.910;8.352;2023-02-27T01:54:06;102037.38;;;-2.28;98.94
21129;BME280;10722;51.910;8.352;2023-02-27T01:56:53;102041.59;;;-2.37;98.92
21129;BME280;10722;51.910;8.352;2023-02-27T01:59:40;102043.41;;;-2.36;99.40
21129;BME280;10722;51.910;8.352;2023-02-27T02:02:32;102038.78;;;-2.40;99.13
21129;BME280;10722;51.910;8.352;2023-02-27T02:05:20;102040.72;;;-2.37;99.41
21129;BME280;10722;51.910;8.352;2023-02-27T02:08:05;102048.13;;;-2.30;99.41
21129;BME280;10722;51.910;8.352;2023-02-27T02:10:52;102046.22;;;-2.33;99.01
21129;BME280;10722;51.910;8.352;2023-02-27T02:13:39;102056.47;;;-2.31;98.88
21129;BME280;10722;51.910;8.352;2023-02-27T02:16:39;102051.97;;;-2.25;99.16
21129;BME280;10722;51.910;8.352;2023-02-27T02:32:23;102043.31;;;-2.46;99.77
21129;BME280;10722;51.910;8.352;2023-02-27T02:51:06;102042.34;;;-2.00;97.72
21129;BME280;10722;51.910;8.352;2023-02-27T02:54:03;102040.94;;;-2.07;97.58
21129;BME280;10722;51.910;8.352;2023-02-27T02:56:55;102035.03;;;-2.16;97.58
21129;BME280;10722;51.910;8.352;2023-02-27T02:59:49;102038.38;;;-2.26;97.78
21129;BME280;10722;51.910;8.352;2023-02-27T03:02:42;102039.72;;;-2.48;97.94
21129;BME280;10722;51.910;8.352;2023-02-27T03:05:32;102039.88;;;-2.46;98.82
21129;BME280;10722;51.910;8.352;2023-02-27T03:08:23;102049.53;;;-2.61;99.32
21129;BME280;10722;51.910;8.352;2023-02-27T03:11:11;102048.66;;;-2.71;99.94
21129;BME280;10722;51.910;8.352;2023-02-27T03:14:11;102056.69;;;-2.94;99.99
21129;BME280;10722;51.910;8.352;2023-02-27T03:17:02;102051.81;;;-3.01;100.00
21129;BME280;10722;51.910;8.352;2023-02-27T03:19:56;102059.75;;;-3.15;100.00
21129;BME280;10722;51.910;8.352;2023-02-27T03:22:45;102064.81;;;-2.79;100.00
21129;BME280;10722;51.910;8.352;2023-02-27T03:25:32;102063.78;;;-2.81;100.00
21129;BME280;10722;51.910;8.352;2023-02-27T03:28:22;102067.00;;;-3.01;100.00
21129;BME280;10722;51.910;8.352;2023-02-27T03:31:16;102073.44;;;-3.13;100.00
21129;BME280;10722;51.910;8.352;2023-02-27T03:34:13;102072.25;;;-3.17;100.00
21129;BME280;10722;51.910;8.352;2023-02-27T03:37:06;102072.75;;;-3.21;100.00
21129;BME280;10722;51.910;8.352;2023-02-27T03:40:16;102079.09;;;-3.16;100.00
21129;BME280;10722;51.910;8.352;2023-02-27T03:46:12;102086.69;;;-3.16;100.00
21129;BME280;10722;51.910;8.352;2023-02-27T03:48:58;102081.44;;;-3.00;100.00
21129;BME280;10722;51.910;8.352;2023-02-27T03:51:43;102081.16;;;-3.03;100.00
21129;BME280;10722;51.910;8.352;2023-02-27T03:54:35;102086.97;;;-3.04;100.00
21129;BME280;10722;51.910;8.352;2023-02-27T03:57:21;102087.88;;;-3.03;100.00
21129;BME280;10722;51.910;8.352;2023-02-27T04:00:10;102092.78;;;-3.05;100.00
21129;BME280;10722;51.910;8.352;2023-02-27T04:02:57;102095.34;;;-3.13;100.00
21129;BME280;10722;51.910;8.352;2023-02-27T04:05:44;102092.06;;;-3.21;100.00
21129;BME280;10722;51.910;8.352;2023-02-27T04:18:08;102119.03;;;-3.22;100.00
21129;BME280;10722;51.910;8.352;2023-02-27T04:21:00;102119.78;;;-3.23;100.00
21129;BME280;10722;51.910;8.352;2023-02-27T04:24:01;102119.53;;;-3.34;100.00
21129;BME280;10722;51.910;8.352;2023-02-27T04:32:48;102123.84;;;-3.42;100.00
21129;BME280;10722;51.910;8.352;2023-02-27T04:35:48;102123.84;;;-3.42;100.00
21129;BME280;10722;51.910;8.352;2023-02-27T04:38:39;102132.78;;;-3.37;100.00
21129;BME280;10722;51.910;8.352;2023-02-27T04:41:32;102137.53;;;-3.40;100.00
21129;BME280;10722;51.910;8.352;2023-02-27T04:44:20;102128.75;;;-3.44;100.00
21129;BME280;10722;51.910;8.352;2023-02-27T04:47:07;102132.59;;;-3.39;100.00
21129;BME280;10722;51.910;8.352;2023-02-27T04:49:58;102136.31;;;-3.44;100.00
21129;BME280;10722;51.910;8.352;2023-02-27T04:52:51;102137.97;;;-3.44;100.00
21129;BME280;10722;51.910;8.352;2023-02-27T04:55:43;102141.09;;;-3.47;100.00
21129;BME280;10722;51.910;8.352;2023-02-27T04:58:36;102145.13;;;-3.40;100.00
21129;BME280;10722;51.910;8.352;2023-02-27T05:01:30;102135.31;;;-3.46;100.00
21129;BME280;10722;51.910;8.352;2023-02-27T05:04:20;102134.72;;;-3.43;100.00
21129;BME280;10722;51.910;8.352;2023-02-27T05:07:08;102129.63;;;-3.26;100.00
21129;BME280;10722;51.910;8.352;2023-02-27T05:10:02;102134.22;;;-3.22;100.00
21129;BME280;10722;51.910;8.352;2023-02-27T05:15:58;102147.16;;;-3.19;100.00
21129;BME280;10722;51.910;8.352;2023-02-27T05:18:47;102141.09;;;-3.21;100.00
21129;BME280;10722;51.910;8.352;2023-02-27T05:22:10;102149.41;;;-3.22;100.00
21129;BME280;10722;51.910;8.352;2023-02-27T05:25:00;102145.41;;;-3.28;100.00
21129;BME280;10722;51.910;8.352;2023-02-27T05:28:01;102148.81;;;-3.28;100.00
21129;BME280;10722;51.910;8.352;2023-02-27T05:31:06;102148.94;;;-3.09;100.00
21129;BME280;10722;51.910;8.352;2023-02-27T05:34:03;102152.84;;;-3.12;100.00
21129;BME280;10722;51.910;8.352;2023-02-27T05:36:56;102153.13;;;-3.09;100.00
21129;BME280;10722;51.910;8.352;2023-02-27T05:39:45;102152.66;;;-3.05;100.00
21129;BME280;10722;51.910;8.352;2023-02-27T05:42:35;102157.84;;;-2.95;100.00
21129;BME280;10722;51.910;8.352;2023-02-27T05:45:24;102157.66;;;-2.88;100.00
21129;BME280;10722;51.910;8.352;2023-02-27T05:48:16;102159.25;;;-2.71;100.00
21129;BME280;10722;51.910;8.352;2023-02-27T05:51:05;102158.63;;;-2.68;100.00
21129;BME280;10722;51.910;8.352;2023-02-27T05:53:56;102151.88;;;-2.59;100.00
21129;BME280;10722;51.910;8.352;2023-02-27T05:56:46;102152.38;;;-2.63;100.00
21129;BME280;10722;51.910;8.352;2023-02-27T06:00:07;102152.38;;;-2.63;100.00
21129;BME280;10722;51.910;8.352;2023-02-27T06:02:52;102148.13;;;-2.90;100.00
21129;BME280;10722;51.910;8.352;2023-02-27T06:05:40;102144.63;;;-3.01;100.00
21129;BME280;10722;51.910;8.352;2023-02-27T06:08:26;102146.25;;;-3.10;100.00
21129;BME280;10722;51.910;8.352;2023-02-27T06:11:11;102143.63;;;-3.47;100.00
21129;BME280;10722;51.910;8.352;2023-02-27T06:13:56;102147.22;;;-3.53;100.00
21129;BME280;10722;51.910;8.352;2023-02-27T06:16:41;102156.44;;;-3.63;100.00
21129;BME280;10722;51.910;8.352;2023-02-27T06:19:27;102156.47;;;-3.71;100.00
21129;BME280;10722;51.910;8.352;2023-02-27T06:22:12;102160.00;;;-3.95;100.00
21129;BME280;10722;51.910;8.352;2023-02-27T06:24:57;102167.44;;;-3.97;100.00
21129;BME280;10722;51.910;8.352;2023-02-27T06:27:42;102176.94;;;-3.94;100.00
21129;BME280;10722;51.910;8.352;2023-02-27T06:30:28;102184.88;;;-3.83;100.00
21129;BME280;10722;51.910;8.352;2023-02-27T06:33:13;102184.09;;;-3.81;100.00
21129;BME280;10722;51.910;8.352;2023-02-27T06:35:58;102193.34;;;-3.82;100.00
21129;BME280;10722;51.910;8.352;2023-02-27T06:38:43;102194.53;;;-3.78;100.00
21129;BME280;10722;51.910;8.352;2023-02-27T06:41:28;102190.06;;;-3.81;100.00
21129;BME280;10722;51.910;8.352;2023-02-27T06:44:13;102208.66;;;-3.72;100.00
21129;BME280;10722;51.910;8.352;2023-02-27T06:46:58;102208.69;;;-3.63;100.00
21129;BME280;10722;51.910;8.352;2023-02-27T06:49:43;102217.16;;;-3.28;100.00
21129;BME280;10722;51.910;8.352;2023-02-27T06:52:28;102225.47;;;-2.94;100.00
21129;BME280;10722;51.910;8.352;2023-02-27T06:55:13;102223.16;;;-2.65;100.00
21129;BME280;10722;51.910;8.352;2023-02-27T06:57:58;102218.41;;;-2.79;100.00
21129;BME280;10722;51.910;8.352;2023-02-27T07:00:43;102226.50;;;-2.38;100.00
21129;BME280;10722;51.910;8.352;2023-02-27T07:03:28;102221.63;;;-2.18;100.00
21129;BME280;10722;51.910;8.352;2023-02-27T07:06:14;102214.09;;;-1.99;100.00
21129;BME280;10722;51.910;8.352;2023-02-27T07:08:59;102209.41;;;-1.94;100.00
21129;BME280;10722;51.910;8.352;2023-02-27T07:11:51;102207.13;;;-1.83;100.00
21129;BME280;10722;51.910;8.352;2023-02-27T07:14:36;102197.59;;;-2.13;100.00
21129;BME280;10722;51.910;8.352;2023-02-27T07:17:21;102201.84;;;-2.03;100.00
21129;BME280;10722;51.910;8.352;2023-02-27T07:20:08;102208.63;;;-1.85;100.00
21129;BME280;10722;51.910;8.352;2023-02-27T07:22:54;102210.56;;;-1.63;100.00
21129;BME280;10722;51.910;8.352;2023-02-27T07:25:40;102202.66;;;-1.85;100.00
21129;BME280;10722;51.910;8.352;2023-02-27T07:28:24;102206.22;;;-1.64;100.00
21129;BME280;10722;51.910;8.352;2023-02-27T07:31:09;102200.09;;;-1.58;100.00
21129;BME280;10722;51.910;8.352;2023-02-27T07:33:55;102193.06;;;-1.79;100.00
21129;BME280;10722;51.910;8.352;2023-02-27T07:36:40;102195.38;;;-1.91;100.00
21129;BME280;10722;51.910;8.352;2023-02-27T07:39:25;102205.44;;;-2.01;100.00
21129;BME280;10722;51.910;8.352;2023-02-27T07:42:11;102218.38;;;-1.70;100.00
21129;BME280;10722;51.910;8.352;2023-02-27T07:44:56;102220.38;;;-1.58;100.00
21129;BME280;10722;51.910;8.352;2023-02-27T07:47:42;102212.47;;;-1.61;100.00
21129;BME280;10722;51.910;8.352;2023-02-27T07:50:27;102214.78;;;-1.72;100.00
21129;BME280;10722;51.910;8.352;2023-02-27T07:53:12;102225.84;;;-1.53;100.00
21129;BME280;10722;51.910;8.352;2023-02-27T07:55:57;102237.88;;;-1.42;100.00
21129;BME280;10722;51.910;8.352;2023-02-27T07:58:42;102233.69;;;-1.22;100.00
21129;BME280;10722;51.910;8.352;2023-02-27T08:01:28;102231.81;;;-0.96;100.00
21129;BME280;10722;51.910;8.352;2023-02-27T08:04:13;102234.38;;;-0.85;100.00
21129;BME280;10722;51.910;8.352;2023-02-27T08:06:59;102229.34;;;-0.75;100.00
21129;BME280;10722;51.910;8.352;2023-02-27T08:09:44;102231.44;;;-0.61;100.00
21129;BME280;10722;51.910;8.352;2023-02-27T08:12:29;102234.75;;;-0.52;100.00
21129;BME280;10722;51.910;8.352;2023-02-27T08:15:15;102226.09;;;-0.64;100.00
21129;BME280;10722;51.910;8.352;2023-02-27T08:18:00;102226.88;;;-0.55;100.00
21129;BME280;10722;51.910;8.352;2023-02-27T08:20:45;102223.13;;;-0.39;100.00
21129;BME280;10722;51.910;8.352;2023-02-27T08:23:31;102222.88;;;-0.32;100.00
21129;BME280;10722;51.910;8.352;2023-02-27T08:26:17;102209.16;;;-0.04;100.00
21129;BME280;10722;51.910;8.352;2023-02-27T08:29:02;102202.81;;;0.32;99.05
21129;BME280;10722;51.910;8.352;2023-02-27T08:31:47;102184.47;;;0.47;96.42
21129;BME280;10722;51.910;8.352;2023-02-27T08:34:32;102163.19;;;0.46;94.86
21129;BME280;10722;51.910;8.352;2023-02-27T08:37:18;102153.09;;;0.58;93.87
21129;BME280;10722;51.910;8.352;2023-02-27T08:40:04;102146.72;;;0.95;93.19
21129;BME280;10722;51.910;8.352;2023-02-27T08:42:49;102136.06;;;1.21;91.62
21129;BME280;10722;51.910;8.352;2023-02-27T08:45:35;102133.78;;;1.14;90.71
21129;BME280;10722;51.910;8.352;2023-02-27T08:48:20;102117.09;;;1.29;89.39
21129;BME280;10722;51.910;8.352;2023-02-27T08:51:06;102099.84;;;1.71;88.53
21129;BME280;10722;51.910;8.352;2023-02-27T08:53:51;102090.25;;;2.02;86.62
21129;BME280;10722;51.910;8.352;2023-02-27T08:56:36;102062.53;;;1.95;85.42
21129;BME280;10722;51.910;8.352;2023-02-27T08:59:22;102039.78;;;1.86;84.35
21129;BME280;10722;51.910;8.352;2023-02-27T09:02:08;102030.88;;;2.16;83.80
21129;BME280;10722;51.910;8.352;2023-02-27T09:04:54;102015.44;;;2.38;82.25
21129;BME280;10722;51.910;8.352;2023-02-27T09:07:39;101997.25;;;2.22;81.32
21129;BME280;10722;51.910;8.352;2023-02-27T09:10:24;102005.13;;;2.25;81.11
21129;BME280;10722;51.910;8.352;2023-02-27T09:13:09;102011.44;;;2.79;80.21
21129;BME280;10722;51.910;8.352;2023-02-27T09:15:55;101997.59;;;3.25;79.26
21129;BME280;10722;51.910;8.352;2023-02-27T09:18:40;101970.53;;;2.65;78.17
21129;BME280;10722;51.910;8.352;2023-02-27T09:21:25;101957.78;;;2.79;77.17
21129;BME280;10722;51.910;8.352;2023-02-27T09:24:10;101971.94;;;2.74;77.21
21129;BME280;10722;51.910;8.352;2023-02-27T09:27:04;101967.19;;;2.91;76.83
21129;BME280;10722;51.910;8.352;2023-02-27T09:29:49;101993.06;;;3.59;76.65
21129;BME280;10722;51.910;8.352;2023-02-27T09:32:34;101959.06;;;3.49;75.35
21129;BME280;10722;51.910;8.352;2023-02-27T09:35:20;101967.47;;;4.13;74.58
21129;BME280;10722;51.910;8.352;2023-02-27T09:38:05;101943.44;;;3.44;73.87
21129;BME280;10722;51.910;8.352;2023-02-27T09:40:52;101955.47;;;3.72;73.46
21129;BME280;10722;51.910;8.352;2023-02-27T09:43:45;101950.94;;;3.81;73.14
21129;BME280;10722;51.910;8.352;2023-02-27T09:46:32;101946.63;;;3.67;72.88
21129;BME280;10722;51.910;8.352;2023-02-27T09:49:18;101943.41;;;3.31;73.55
21129;BME280;10722;51.910;8.352;2023-02-27T09:52:04;101976.91;;;3.47;73.52
21129;BME280;10722;51.910;8.352;2023-02-27T09:54:50;101990.59;;;3.61;74.24
21129;BME280;10722;51.910;8.352;2023-02-27T10:00:43;101984.44;;;3.97;73.48
21129;BME280;10722;51.910;8.352;2023-02-27T10:09:25;101996.94;;;3.03;74.82
21129;BME280;10722;51.910;8.352;2023-02-27T10:15:25;102022.91;;;3.09;75.80
21129;BME280;10722;51.910;8.352;2023-02-27T10:18:13;102032.19;;;3.45;75.90
21129;BME280;10722;51.910;8.352;2023-02-27T10:21:24;102027.34;;;3.75;75.56
21129;BME280;10722;51.910;8.352;2023-02-27T10:27:05;101989.84;;;3.75;74.00
21129;BME280;10722;51.910;8.352;2023-02-27T10:30:09;101973.59;;;3.75;73.86
21129;BME280;10722;51.910;8.352;2023-02-27T10:35:57;101950.91;;;3.54;73.22
21129;BME280;10722;51.910;8.352;2023-02-27T10:38:49;101963.16;;;4.12;73.00
21129;BME280;10722;51.910;8.352;2023-02-27T10:41:36;101951.94;;;4.51;72.20
21129;BME280;10722;51.910;8.352;2023-02-27T10:44:24;101945.28;;;4.68;71.67
21129;BME280;10722;51.910;8.352;2023-02-27T10:47:14;101901.41;;;4.63;69.98
21129;BME280;10722;51.910;8.352;2023-02-27T10:50:19;101900.03;;;4.83;69.58
21129;BME280;10722;51.910;8.352;2023-02-27T10:53:15;101899.88;;;4.95;69.79
21129;BME280;10722;51.910;8.352;2023-02-27T10:56:03;101881.06;;;4.52;69.33
21129;BME280;10722;51.910;8.352;2023-02-27T10:59:02;101879.00;;;4.74;68.87
21129;BME280;10722;51.910;8.352;2023-02-27T11:01:51;101872.69;;;4.69;68.72
21129;BME280;10722;51.910;8.352;2023-02-27T11:04:38;101865.84;;;4.98;67.98
21129;BME280;10722;51.910;8.352;2023-02-27T11:07:34;101845.16;;;5.24;67.15
21129;BME280;10722;51.910;8.352;2023-02-27T11:10:23;101848.91;;;5.46;66.83
21129;BME280;10722;51.910;8.352;2023-02-27T11:13:18;101819.25;;;5.05;66.37
21129;BME280;10722;51.910;8.352;2023-02-27T11:18:55;101781.72;;;5.22;65.17
21129;BME280;10722;51.910;8.352;2023-02-27T11:24:46;101816.22;;;5.89;64.87
21129;BME280;10722;51.910;8.352;2023-02-27T11:27:32;101731.78;;;5.31;63.21
21129;BME280;10722;51.910;8.352;2023-02-27T11:30:26;101759.97;;;5.94;63.01
21129;BME280;10722;51.910;8.352;2023-02-27T11:33:17;101713.72;;;5.61;62.08
21129;BME280;10722;51.910;8.352;2023-02-27T11:36:04;101669.28;;;4.83;61.82
21129;BME280;10722;51.910;8.352;2023-02-27T11:38:54;101704.84;;;4.33;63.53
21129;BME280;10722;51.910;8.352;2023-02-27T11:41:40;101740.88;;;4.36;64.35
21129;BME280;10722;51.910;8.352;2023-02-27T11:44:27;101752.81;;;3.92;65.12
21129;BME280;10722;51.910;8.352;2023-02-27T11:47:36;101774.06;;;3.91;65.90
21129;BME280;10722;51.910;8.352;2023-02-27T11:57:24;101835.28;;;4.58;66.94
21129;BME280;10722;51.910;8.352;2023-02-27T12:00:30;101799.09;;;4.23;66.28
21129;BME280;10722;51.910;8.352;2023-02-27T12:03:24;101831.13;;;4.45;66.78
21129;BME280;10722;51.910;8.352;2023-02-27T12:06:16;101815.88;;;4.33;66.31
21129;BME280;10722;51.910;8.352;2023-02-27T12:09:28;101808.25;;;4.48;66.15
21129;BME280;10722;51.910;8.352;2023-02-27T12:21:05;101769.03;;;5.87;63.13
21129;BME280;10722;51.910;8.352;2023-02-27T12:27:00;101740.53;;;5.82;62.31
21129;BME280;10722;51.910;8.352;2023-02-27T12:30:04;101744.41;;;5.43;62.53
21129;BME280;10722;51.910;8.352;2023-02-27T12:35:52;101753.81;;;4.82;63.79
21129;BME280;10722;51.910;8.352;2023-02-27T12:38:40;101765.09;;;4.56;64.52
21129;BME280;10722;51.910;8.352;2023-02-27T12:50:51;101779.97;;;4.46;64.64
21129;BME280;10722;51.910;8.352;2023-02-27T12:56:48;101783.69;;;4.66;64.35
21129;BME280;10722;51.910;8.352;2023-02-27T13:03:03;101784.03;;;5.17;63.72
21129;BME280;10722;51.910;8.352;2023-02-27T13:05:57;101761.41;;;5.41;62.63
21129;BME280;10722;51.910;8.352;2023-02-27T13:12:02;101738.78;;;4.88;62.75
21129;BME280;10722;51.910;8.352;2023-02-27T13:21:34;101765.09;;;4.56;63.61
21129;BME280;10722;51.910;8.352;2023-02-27T13:24:24;101778.72;;;5.14;63.13
21129;BME280;10722;51.910;8.352;2023-02-27T13:27:31;101774.72;;;6.47;61.20
21129;BME280;10722;51.910;8.352;2023-02-27T13:30:33;101694.31;;;7.03;58.45
21129;BME280;10722;51.910;8.352;2023-02-27T13:33:26;101663.50;;;7.23;57.05
21129;BME280;10722;51.910;8.352;2023-02-27T13:36:26;101642.78;;;7.39;56.15
21129;BME280;10722;51.910;8.352;2023-02-27T13:45:44;101561.91;;;8.15;52.55
21129;BME280;10722;51.910;8.352;2023-02-27T13:54:24;101552.81;;;7.61;52.71
21129;BME280;10722;51.910;8.352;2023-02-27T13:57:19;101541.25;;;7.73;52.31
21129;BME280;10722;51.910;8.352;2023-02-27T14:03:08;101531.47;;;7.85;51.89
21129;BME280;10722;51.910;8.352;2023-02-27T14:06:04;101596.47;;;8.62;52.43
21129;BME280;10722;51.910;8.352;2023-02-27T14:08:50;101530.13;;;7.53;52.02
21129;BME280;10722;51.910;8.352;2023-02-27T14:11:52;101575.28;;;8.06;52.39
21129;BME280;10722;51.910;8.352;2023-02-27T14:14:40;101609.56;;;7.84;53.84
21129;BME280;10722;51.910;8.352;2023-02-27T14:23:19;101591.63;;;6.53;55.35
21129;BME280;10722;51.910;8.352;2023-02-27T14:26:17;101635.84;;;6.63;56.34
21129;BME280;10722;51.910;8.352;2023-02-27T14:29:03;101627.09;;;6.78;55.23
21129;BME280;10722;51.910;8.352;2023-02-27T14:31:50;101601.84;;;6.51;55.37
21129;BME280;10722;51.910;8.352;2023-02-27T14:34:39;101629.06;;;6.29;56.44
21129;BME280;10722;51.910;8.352;2023-02-27T14:37:24;101660.53;;;6.60;56.42
21129;BME280;10722;51.910;8.352;2023-02-27T14:40:25;101658.75;;;7.32;55.21
21129;BME280;10722;51.910;8.352;2023-02-27T14:43:27;101612.50;;;6.77;54.95
21129;BME280;10722;51.910;8.352;2023-02-27T14:46:24;101600.81;;;5.79;56.01
21129;BME280;10722;51.910;8.352;2023-02-27T14:49:27;101693.59;;;7.06;56.40
21129;BME280;10722;51.910;8.352;2023-02-27T14:52:17;101630.88;;;7.04;54.92
21129;BME280;10722;51.910;8.352;2023-02-27T14:55:20;101624.81;;;7.02;54.86
21129;BME280;10722;51.910;8.352;2023-02-27T14:58:19;101603.06;;;6.77;54.49
21129;BME280;10722;51.910;8.352;2023-02-27T15:01:08;101612.16;;;7.26;53.84
21129;BME280;10722;51.910;8.352;2023-02-27T15:03:56;101624.16;;;7.83;53.08
21129;BME280;10722;51.910;8.352;2023-02-27T15:06:43;101583.31;;;7.13;53.45
21129;BME280;10722;51.910;8.352;2023-02-27T15:12:16;101608.28;;;6.61;54.46
21129;BME280;10722;51.910;8.352;2023-02-27T15:15:03;101630.75;;;6.11;56.11
21129;BME280;10722;51.910;8.352;2023-02-27T15:17:51;101686.19;;;6.24;57.54
21129;BME280;10722;51.910;8.352;2023-02-27T15:20:36;101700.56;;;5.88;58.49
21129;BME280;10722;51.910;8.352;2023-02-27T15:23:27;101691.06;;;5.54;58.43
21129;BME280;10722;51.910;8.352;2023-02-27T15:26:12;101693.00;;;5.42;58.36
21129;BME280;10722;51.910;8.352;2023-02-27T15:28:58;101707.19;;;5.51;58.15
21129;BME280;10722;51.910;8.352;2023-02-27T15:31:44;101684.84;;;5.17;57.98
21129;BME280;10722;51.910;8.352;2023-02-27T15:34:30;101673.16;;;4.91;58.31
21129;BME280;10722;51.910;8.352;2023-02-27T15:37:21;101727.91;;;5.23;59.16
21129;BME280;10722;51.910;8.352;2023-02-27T15:40:14;101720.72;;;5.01;59.66
21129;BME280;10722;51.910;8.352;2023-02-27T15:43:01;101781.41;;;5.63;60.63
21129;BME280;10722;51.910;8.352;2023-02-27T15:45:47;101708.16;;;5.06;58.64
21129;BME280;10722;51.910;8.352;2023-02-27T15:48:32;101691.66;;;4.86;58.66
21129;BME280;10722;51.910;8.352;2023-02-27T15:51:18;101695.91;;;4.85;58.39
21129;BME280;10722;51.910;8.352;2023-02-27T15:54:03;101689.88;;;4.70;58.11
21129;BME280;10722;51.910;8.352;2023-02-27T15:56:48;101713.88;;;4.70;59.03
21129;BME280;10722;51.910;8.352;2023-02-27T15:59:35;101729.69;;;4.63;59.30
21129;BME280;10722;51.910;8.352;2023-02-27T16:02:29;101718.00;;;4.39;59.65
21129;BME280;10722;51.910;8.352;2023-02-27T16:05:24;101754.69;;;4.82;60.02
21129;BME280;10722;51.910;8.352;2023-02-27T16:08:16;101745.09;;;5.24;58.91
21129;BME280;10722;51.910;8.352;2023-02-27T16:11:03;101704.59;;;5.04;58.30
21129;BME280;10722;51.910;8.352;2023-02-27T16:13:48;101718.22;;;5.03;58.11
21129;BME280;10722;51.910;8.352;2023-02-27T16:16:35;101704.38;;;4.69;58.59
21129;BME280;10722;51.910;8.352;2023-02-27T16:19:26;101734.19;;;4.82;59.21
21129;BME280;10722;51.910;8.352;2023-02-27T16:22:16;101742.63;;;5.11;58.86
21129;BME280;10722;51.910;8.352;2023-02-27T16:25:09;101728.75;;;5.07;58.41
21129;BME280;10722;51.910;8.352;2023-02-27T16:27:55;101732.91;;;5.05;58.70
21129;BME280;10722;51.910;8.352;2023-02-27T16:30:41;101744.78;;;5.34;58.71
21129;BME280;10722;51.910;8.352;2023-02-27T16:33:30;101733.63;;;5.03;58.91
21129;BME280;10722;51.910;8.352;2023-02-27T16:36:21;101719.59;;;4.66;59.27
21129;BME280;10722;51.910;8.352;2023-02-27T16:39:13;101741.34;;;4.43;60.07
21129;BME280;10722;51.910;8.352;2023-02-27T16:42:00;101748.91;;;4.42;60.53
21129;BME280;10722;51.910;8.352;2023-02-27T16:44:45;101768.25;;;4.22;61.39
21129;BME280;10722;51.910;8.352;2023-02-27T16:47:30;101774.41;;;4.11;62.10
21129;BME280;10722;51.910;8.352;2023-02-27T16:50:19;101804.00;;;4.06;62.55
21129;BME280;10722;51.910;8.352;2023-02-27T16:53:05;101808.00;;;4.02;62.81
21129;BME280;10722;51.910;8.352;2023-02-27T16:55:51;101814.81;;;4.01;63.19
21129;BME280;10722;51.910;8.352;2023-02-27T16:58:36;101826.94;;;4.04;63.28
21129;BME280;10722;51.910;8.352;2023-02-27T17:01:21;101833.53;;;4.00;63.90
21129;BME280;10722;51.910;8.352;2023-02-27T17:04:06;101839.94;;;3.94;63.92
21129;BME280;10722;51.910;8.352;2023-02-27T17:07:12;101860.72;;;3.98;64.47
21129;BME280;10722;51.910;8.352;2023-02-27T17:09:58;101857.41;;;3.86;64.76
21129;BME280;10722;51.910;8.352;2023-02-27T17:12:43;101878.16;;;3.91;64.83